Time;durP1;ratioP1;P1;durP2;ratioP2;P2;SDS_P1;SDS_P2;PMS_P1;PMS_P2;Temp;Humidity;BMP_temperature;BMP_pressure;BME280_temperature;BME280_humidity;BME280_pressure;Samples;Min_cycle;Max_cycle;Signal;HPM_P1;HPM_P2
2021/10/01 00:00:41;;;;;;;6.07;4.90;;;8.20;99.90;;;;;;2080091;28;20032;-71
2021/10/01 00:01:42;;;;;;;7.28;4.80;;;8.20;99.90;;;;;;2079328;28;20025;-71
2021/10/01 00:02:42;;;;;;;6.53;5.20;;;8.20;99.90;;;;;;2080710;28;20063;-72
2021/10/01 00:03:43;;;;;;;5.90;4.80;;;8.20;99.90;;;;;;2079815;28;20025;-72
2021/10/01 00:04:44;;;;;;;5.88;4.80;;;8.20;99.90;;;;;;2079998;28;20021;-72
2021/10/01 00:05:44;;;;;;;6.93;5.20;;;8.20;99.90;;;;;;2079969;28;20021;-71
2021/10/01 00:06:45;;;;;;;5.95;4.72;;;8.20;99.90;;;;;;2080057;28;20033;-72
2021/10/01 00:07:46;;;;;;;5.78;4.95;;;8.20;99.90;;;;;;2080413;28;20034;-73
2021/10/01 00:08:47;;;;;;;6.97;4.93;;;8.20;99.90;;;;;;2080569;28;20032;-72
2021/10/01 00:09:47;;;;;;;6.13;5.05;;;8.10;99.90;;;;;;2079635;28;20025;-72
2021/10/01 00:10:48;;;;;;;6.55;5.20;;;8.10;99.90;;;;;;2079557;28;20079;-69
2021/10/01 00:11:52;;;;;;;6.35;5.35;;;8.20;99.90;;;;;;2079558;28;20077;-70
2021/10/01 00:12:52;;;;;;;7.45;5.10;;;8.20;99.90;;;;;;2080304;28;20033;-69
2021/10/01 00:13:53;;;;;;;8.95;5.50;;;8.10;99.90;;;;;;2080607;28;20025;-70
2021/10/01 00:14:54;;;;;;;6.60;5.25;;;8.20;99.90;;;;;;2080379;28;20033;-69
2021/10/01 00:15:54;;;;;;;7.03;5.38;;;8.10;99.90;;;;;;2079813;28;20072;-69
2021/10/01 00:16:56;;;;;;;6.18;5.45;;;8.10;99.90;;;;;;2079809;28;20032;-70
2021/10/01 00:17:56;;;;;;;9.18;5.50;;;8.10;99.90;;;;;;2080450;28;20048;-70
2021/10/01 00:18:57;;;;;;;8.10;5.80;;;8.10;99.90;;;;;;2080379;28;20025;-71
2021/10/01 00:19:57;;;;;;;8.38;5.30;;;8.10;99.90;;;;;;2080260;28;20449;-69
2021/10/01 00:20:58;;;;;;;7.05;5.28;;;8.10;99.90;;;;;;2080420;28;20064;-69
2021/10/01 00:21:59;;;;;;;7.10;5.40;;;8.10;99.90;;;;;;2079619;28;20045;-69
2021/10/01 00:22:59;;;;;;;6.10;5.28;;;8.10;99.90;;;;;;2080400;28;20071;-69
2021/10/01 00:24:00;;;;;;;7.57;5.30;;;8.10;99.90;;;;;;2080260;28;20031;-69
2021/10/01 00:25:01;;;;;;;7.80;5.22;;;8.10;99.90;;;;;;2080102;28;20084;-69
2021/10/01 00:26:03;;;;;;;7.90;5.32;;;8.10;99.90;;;;;;2079813;28;20176;-69
2021/10/01 00:27:08;;;;;;;6.45;5.13;;;8.10;99.90;;;;;;2079803;28;20022;-69
2021/10/01 00:28:09;;;;;;;6.90;5.38;;;8.10;99.90;;;;;;2080429;28;20084;-69
2021/10/01 00:29:10;;;;;;;6.28;5.05;;;8.10;99.90;;;;;;2080492;28;20116;-69
2021/10/01 00:30:12;;;;;;;5.72;4.88;;;8.10;99.90;;;;;;2080329;28;20018;-69
2021/10/01 00:31:12;;;;;;;7.38;5.50;;;8.10;99.90;;;;;;2078856;28;20526;-70
2021/10/01 00:32:14;;;;;;;7.20;5.43;;;8.10;99.90;;;;;;2079878;28;20045;-69
2021/10/01 00:33:15;;;;;;;8.48;5.50;;;8.10;99.90;;;;;;2080477;28;20029;-70
2021/10/01 00:34:15;;;;;;;7.85;5.60;;;8.10;99.90;;;;;;2079719;28;20033;-69
2021/10/01 00:35:16;;;;;;;6.22;5.22;;;8.10;99.90;;;;;;2079985;28;20068;-70
2021/10/01 00:36:17;;;;;;;7.38;5.18;;;8.10;99.90;;;;;;2080069;28;20026;-69
2021/10/01 00:37:17;;;;;;;9.98;5.70;;;8.00;99.90;;;;;;2080194;28;20030;-71
2021/10/01 00:38:18;;;;;;;8.85;5.75;;;8.10;99.90;;;;;;2081302;28;20421;-70
2021/10/01 00:39:18;;;;;;;6.53;5.50;;;8.10;99.90;;;;;;2085348;28;20028;-69
2021/10/01 00:40:19;;;;;;;8.63;5.35;;;8.00;99.90;;;;;;2074310;28;20025;-68
2021/10/01 00:41:20;;;;;;;7.65;5.32;;;8.00;99.90;;;;;;2073785;28;20115;-70
2021/10/01 00:42:21;;;;;;;7.35;5.20;;;8.00;99.90;;;;;;2084781;28;20025;-70
2021/10/01 00:43:22;;;;;;;7.93;5.50;;;8.00;99.90;;;;;;2075089;28;20037;-69
2021/10/01 00:44:23;;;;;;;8.13;5.50;;;8.00;99.90;;;;;;2081993;28;20477;-69
2021/10/01 00:45:23;;;;;;;8.13;5.20;;;8.00;99.90;;;;;;2082046;28;20544;-69
2021/10/01 00:46:24;;;;;;;7.32;5.80;;;8.00;99.90;;;;;;2082118;28;20026;-69
2021/10/01 00:47:25;;;;;;;6.93;5.80;;;8.00;99.90;;;;;;2081370;28;20038;-69
2021/10/01 00:48:25;;;;;;;10.50;6.07;;;8.10;99.90;;;;;;2073065;28;20026;-70
2021/10/01 00:49:26;;;;;;;6.68;5.60;;;8.00;99.90;;;;;;2081310;28;20112;-70
2021/10/01 00:50:27;;;;;;;7.70;5.75;;;8.00;99.90;;;;;;2081209;28;20021;-70
2021/10/01 00:51:28;;;;;;;7.85;6.00;;;8.00;99.90;;;;;;2081083;28;20036;-70
2021/10/01 00:52:28;;;;;;;7.07;5.80;;;8.00;99.90;;;;;;2081217;28;20057;-70
2021/10/01 00:53:31;;;;;;;7.05;5.43;;;8.00;99.90;;;;;;2080989;28;20036;-70
2021/10/01 00:54:31;;;;;;;7.88;5.60;;;8.00;99.90;;;;;;2081259;28;20037;-69
2021/10/01 00:55:33;;;;;;;7.97;5.95;;;8.00;99.90;;;;;;2081252;28;20061;-69
2021/10/01 00:56:34;;;;;;;6.93;5.28;;;8.00;99.90;;;;;;2081122;28;20135;-70
2021/10/01 00:57:35;;;;;;;6.60;5.40;;;8.00;99.90;;;;;;2080829;28;20030;-70
2021/10/01 00:58:36;;;;;;;7.28;5.45;;;8.00;99.90;;;;;;2080910;28;20067;-69
2021/10/01 00:59:36;;;;;;;7.22;5.40;;;8.00;99.90;;;;;;2072774;28;20038;-70
2021/10/01 01:00:49;;;;;;;7.75;5.55;;;8.00;99.90;;;;;;2072660;28;20801;-72
2021/10/01 01:01:49;;;;;;;7.53;5.60;;;8.00;99.90;;;;;;2080356;28;20753;-70
2021/10/01 01:02:50;;;;;;;7.63;5.45;;;8.00;99.90;;;;;;2080891;28;20116;-72
2021/10/01 01:03:56;;;;;;;7.13;5.50;;;8.00;99.90;;;;;;2080856;28;20075;-73
2021/10/01 01:04:57;;;;;;;7.15;5.28;;;8.00;99.90;;;;;;2080901;28;20059;-71
2021/10/01 01:06:04;;;;;;;8.52;5.55;;;8.00;99.90;;;;;;2080857;28;20494;-72
2021/10/01 01:07:17;;;;;;;7.07;5.22;;;7.90;99.90;;;;;;2081574;28;20040;-73
2021/10/01 01:08:23;;;;;;;7.15;5.65;;;7.90;99.90;;;;;;2081042;28;20029;-74
2021/10/01 01:10:01;;;;;;;8.88;5.68;;;7.90;99.90;;;;;;2081025;28;20049;-73
2021/10/01 01:11:14;;;;;;;9.48;5.90;;;7.90;99.90;;;;;;2080742;28;20038;-74
2021/10/01 01:12:34;;;;;;;6.85;5.50;;;7.90;99.90;;;;;;2080753;28;20045;-73
2021/10/01 01:13:47;;;;;;;10.20;5.93;;;7.90;99.90;;;;;;2080777;28;20030;-71
2021/10/01 01:15:01;;;;;;;8.32;6.25;;;7.90;99.90;;;;;;2074347;28;20038;-73
2021/10/01 01:16:12;;;;;;;9.10;5.88;;;7.90;99.90;;;;;;2074284;28;20167;-72
2021/10/01 01:17:53;;;;;;;7.95;6.03;;;7.80;99.90;;;;;;2074500;28;20032;-73
2021/10/01 01:18:56;;;;;;;8.73;5.63;;;7.80;99.90;;;;;;2074818;28;20040;-72
2021/10/01 01:20:11;;;;;;;8.05;5.65;;;7.80;99.90;;;;;;2080649;28;20030;-73
2021/10/01 01:21:50;;;;;;;7.45;5.35;;;7.80;99.90;;;;;;2073677;28;20120;-71
2021/10/01 01:23:07;;;;;;;8.55;5.80;;;7.80;99.90;;;;;;2080734;28;20422;-72
2021/10/01 01:24:28;;;;;;;7.20;5.90;;;7.80;99.90;;;;;;2080518;28;20040;-72
2021/10/01 01:26:04;;;;;;;8.52;5.75;;;7.80;99.90;;;;;;2078986;28;20107;-71
2021/10/01 01:27:14;;;;;;;9.85;5.93;;;7.80;99.90;;;;;;2080631;28;20033;-73
2021/10/01 01:28:29;;;;;;;8.50;5.88;;;7.70;99.90;;;;;;2080943;28;20036;-72
2021/10/01 01:30:02;;;;;;;8.05;5.68;;;7.80;99.90;;;;;;2080778;28;20017;-72
2021/10/01 01:31:14;;;;;;;11.20;5.80;;;7.80;99.90;;;;;;2080579;28;20116;-71
2021/10/01 01:32:22;;;;;;;9.32;5.95;;;7.80;99.90;;;;;;2080410;28;20030;-71
2021/10/01 01:33:23;;;;;;;8.45;6.07;;;7.80;99.90;;;;;;2080593;28;20033;-74
2021/10/01 01:34:39;;;;;;;7.70;5.75;;;7.80;99.90;;;;;;2080639;28;20450;-72
2021/10/01 01:35:41;;;;;;;7.97;5.97;;;7.80;99.90;;;;;;2080638;28;20049;-73
2021/10/01 01:36:43;;;;;;;7.65;5.78;;;7.80;99.90;;;;;;2080748;28;20152;-73
2021/10/01 01:37:51;;;;;;;7.40;5.72;;;7.70;99.90;;;;;;2080656;28;20026;-72
2021/10/01 01:38:55;;;;;;;7.65;5.63;;;7.70;99.90;;;;;;2080746;28;20461;-73
2021/10/01 01:39:59;;;;;;;8.27;5.88;;;7.70;99.90;;;;;;2080512;28;20159;-73
2021/10/01 01:41:03;;;;;;;7.90;5.93;;;7.70;99.90;;;;;;2080347;28;20025;-72
2021/10/01 01:42:06;;;;;;;7.68;5.82;;;7.70;99.90;;;;;;2079968;28;20030;-71
2021/10/01 01:43:09;;;;;;;8.82;6.00;;;7.70;99.90;;;;;;2080599;28;20018;-73
2021/10/01 01:44:11;;;;;;;7.32;5.75;;;7.70;99.90;;;;;;2080518;28;20033;-73
2021/10/01 01:45:17;;;;;;;8.52;5.70;;;7.70;99.90;;;;;;2072361;28;20037;-72
2021/10/01 01:46:19;;;;;;;8.48;5.70;;;7.70;99.90;;;;;;2073040;28;20026;-73
2021/10/01 01:47:20;;;;;;;7.53;5.70;;;7.70;99.90;;;;;;2072496;28;20030;-71
2021/10/01 01:48:22;;;;;;;7.35;5.55;;;7.70;99.90;;;;;;2072351;28;20036;-72
2021/10/01 01:49:23;;;;;;;7.93;5.50;;;7.70;99.90;;;;;;2080152;28;20166;-72
2021/10/01 01:50:25;;;;;;;7.70;5.68;;;7.70;99.90;;;;;;2080422;28;20387;-72
2021/10/01 01:51:26;;;;;;;9.38;5.90;;;7.70;99.90;;;;;;2079767;28;20033;-73
2021/10/01 01:52:28;;;;;;;8.45;5.95;;;7.70;99.90;;;;;;2080464;28;20057;-73
2021/10/01 01:53:30;;;;;;;6.85;5.50;;;7.70;99.90;;;;;;2080545;28;20171;-72
2021/10/01 01:54:32;;;;;;;8.18;6.20;;;7.70;99.90;;;;;;2080365;28;20029;-73
2021/10/01 01:55:35;;;;;;;7.63;5.90;;;7.70;99.90;;;;;;2080456;28;20038;-71
2021/10/01 01:56:35;;;;;;;7.45;5.95;;;7.70;99.90;;;;;;2072302;28;20037;-72
2021/10/01 01:57:37;;;;;;;7.35;5.55;;;7.70;99.90;;;;;;2072133;28;20146;-72
2021/10/01 01:58:40;;;;;;;7.68;6.00;;;7.70;99.90;;;;;;2072380;28;20085;-71
2021/10/01 01:59:51;;;;;;;7.60;5.60;;;7.70;99.90;;;;;;2080454;28;20021;-72
2021/10/01 02:00:55;;;;;;;8.63;5.85;;;7.60;99.90;;;;;;2080329;28;20191;-72
2021/10/01 02:01:57;;;;;;;8.85;6.30;;;7.60;99.90;;;;;;2079774;28;20385;-72
2021/10/01 02:02:59;;;;;;;7.43;5.95;;;7.60;99.90;;;;;;2080296;28;20668;-72
2021/10/01 02:04:01;;;;;;;9.15;5.80;;;7.60;99.90;;;;;;2072311;28;20036;-72
2021/10/01 02:05:03;;;;;;;7.90;6.00;;;7.70;99.90;;;;;;2072626;28;20099;-72
2021/10/01 02:06:05;;;;;;;8.88;6.05;;;7.70;99.90;;;;;;2080472;28;20087;-71
2021/10/01 02:07:08;;;;;;;7.38;6.10;;;7.60;99.90;;;;;;2080585;28;20028;-73
2021/10/01 02:08:09;;;;;;;10.90;6.00;;;7.60;99.90;;;;;;2080618;28;20398;-72
2021/10/01 02:09:11;;;;;;;8.30;5.90;;;7.70;99.90;;;;;;2080547;28;20143;-72
2021/10/01 02:10:16;;;;;;;8.40;5.63;;;7.60;99.90;;;;;;2080185;28;20036;-69
2021/10/01 02:11:17;;;;;;;7.00;5.78;;;7.60;99.90;;;;;;2079582;28;20037;-69
2021/10/01 02:12:20;;;;;;;8.35;5.97;;;7.60;99.90;;;;;;2072215;28;20974;-70
2021/10/01 02:13:22;;;;;;;10.40;5.88;;;7.60;99.90;;;;;;2072284;28;20454;-70
2021/10/01 02:14:39;;;;;;;9.90;6.60;;;7.60;99.90;;;;;;2073562;28;20590;-69
2021/10/01 02:15:44;;;;;;;8.30;5.70;;;7.60;99.90;;;;;;2081997;28;20036;-69
2021/10/01 02:16:47;;;;;;;8.95;5.85;;;7.60;99.90;;;;;;2088337;28;20104;-69
2021/10/01 02:17:50;;;;;;;9.07;6.15;;;7.60;99.90;;;;;;2080231;28;20466;-68
2021/10/01 02:18:53;;;;;;;10.05;6.20;;;7.60;99.90;;;;;;2080270;28;20017;-69
2021/10/01 02:19:55;;;;;;;9.00;6.10;;;7.60;99.90;;;;;;2080338;28;20021;-69
2021/10/01 02:20:57;;;;;;;8.38;6.15;;;7.60;99.90;;;;;;2080538;28;20064;-68
2021/10/01 02:22:00;;;;;;;8.35;6.00;;;7.50;99.90;;;;;;2079530;28;20029;-68
2021/10/01 02:23:01;;;;;;;7.72;5.80;;;7.50;99.90;;;;;;2080387;28;20712;-70
2021/10/01 02:24:02;;;;;;;8.52;5.55;;;7.50;99.90;;;;;;2081026;28;20025;-69
2021/10/01 02:25:05;;;;;;;8.48;5.63;;;7.50;99.90;;;;;;2080391;28;20107;-69
2021/10/01 02:27:42;;;;;;;9.68;5.75;;;7.50;99.90;;;;;;2083498;28;20021;-68
2021/10/01 02:28:49;;;;;;;8.95;6.18;;;7.50;99.90;;;;;;2087091;28;20029;-68
2021/10/01 02:30:02;;;;;;;8.23;6.25;;;7.50;99.90;;;;;;2080513;28;20108;-69
2021/10/01 02:31:06;;;;;;;8.63;6.20;;;7.50;99.90;;;;;;2080624;28;20021;-72
2021/10/01 02:32:20;;;;;;;8.43;5.65;;;7.50;99.90;;;;;;2080071;28;20059;-69
2021/10/01 02:33:47;;;;;;;7.70;5.75;;;7.50;99.90;;;;;;2080336;28;20033;-68
2021/10/01 02:34:49;;;;;;;10.68;5.95;;;7.40;99.90;;;;;;2079884;28;20120;-68
2021/10/01 02:35:53;;;;;;;8.68;6.13;;;7.40;99.90;;;;;;2080205;28;20068;-68
2021/10/01 02:36:53;;;;;;;7.07;6.00;;;7.50;99.90;;;;;;2080359;28;20056;-69
2021/10/01 02:37:54;;;;;;;8.10;5.88;;;7.40;99.90;;;;;;2080006;28;20034;-68
2021/10/01 02:38:55;;;;;;;9.77;6.15;;;7.40;99.90;;;;;;2072162;28;20030;-69
2021/10/01 02:39:57;;;;;;;9.45;6.40;;;7.40;99.90;;;;;;2071804;28;20117;-68
2021/10/01 02:40:57;;;;;;;9.73;6.20;;;7.40;99.90;;;;;;2080252;28;20032;-70
2021/10/01 02:41:58;;;;;;;9.40;6.20;;;7.40;99.90;;;;;;2079482;28;20025;-69
2021/10/01 02:43:03;;;;;;;8.65;6.20;;;7.40;99.90;;;;;;2080884;28;20029;-68
2021/10/01 02:44:06;;;;;;;10.57;6.10;;;7.40;99.90;;;;;;2080161;28;20025;-68
2021/10/01 02:45:09;;;;;;;9.02;6.15;;;7.40;99.90;;;;;;2080219;28;20033;-68
2021/10/01 02:46:11;;;;;;;7.57;5.75;;;7.40;99.90;;;;;;2072309;28;20140;-69
2021/10/01 02:47:16;;;;;;;8.88;6.00;;;7.50;99.90;;;;;;2072186;28;20614;-69
2021/10/01 02:48:18;;;;;;;7.07;5.93;;;7.50;99.90;;;;;;2072096;28;20040;-69
2021/10/01 02:49:19;;;;;;;8.30;6.10;;;7.50;99.90;;;;;;2080075;28;20390;-69
2021/10/01 02:50:23;;;;;;;6.82;5.40;;;7.40;99.90;;;;;;2072089;28;20029;-69
2021/10/01 02:51:29;;;;;;;7.72;5.63;;;7.40;99.90;;;;;;2071506;28;20034;-69
2021/10/01 02:53:01;;;;;;;7.07;5.75;;;7.40;99.90;;;;;;2072683;28;20740;-69
2021/10/01 02:54:09;;;;;;;9.27;6.10;;;7.40;99.90;;;;;;2076627;28;20033;-69
2021/10/01 02:55:21;;;;;;;8.55;6.10;;;7.40;99.90;;;;;;2072061;28;20030;-70
2021/10/01 02:56:32;;;;;;;7.88;5.75;;;7.40;99.90;;;;;;2065241;28;20030;-69
2021/10/01 02:57:42;;;;;;;8.95;5.80;;;7.40;99.90;;;;;;2074618;28;20029;-69
2021/10/01 02:58:51;;;;;;;8.73;5.78;;;7.40;99.90;;;;;;2080068;28;20414;-69
2021/10/01 02:59:53;;;;;;;8.13;5.65;;;7.40;99.90;;;;;;2080907;28;20033;-69
2021/10/01 03:00:55;;;;;;;7.38;5.57;;;7.40;99.90;;;;;;2079273;28;20394;-69
2021/10/01 03:01:58;;;;;;;9.48;5.60;;;7.40;99.90;;;;;;2071039;28;20080;-71
2021/10/01 03:03:09;;;;;;;7.97;5.50;;;7.40;99.90;;;;;;2072170;28;20026;-68
2021/10/01 03:04:11;;;;;;;8.77;5.80;;;7.30;99.90;;;;;;2079986;28;20034;-70
2021/10/01 03:05:12;;;;;;;8.43;5.68;;;7.30;99.90;;;;;;2071815;28;20106;-69
2021/10/01 03:06:13;;;;;;;8.82;5.78;;;7.30;99.90;;;;;;2079955;28;20037;-68
2021/10/01 03:07:15;;;;;;;7.82;6.18;;;7.30;99.90;;;;;;2088198;28;20052;-70
2021/10/01 03:08:18;;;;;;;8.63;5.63;;;7.30;99.90;;;;;;2079939;28;20237;-70
2021/10/01 03:09:27;;;;;;;8.10;5.60;;;7.20;99.90;;;;;;2080022;28;20124;-70
2021/10/01 03:10:29;;;;;;;7.82;5.70;;;7.30;99.90;;;;;;2079898;28;20041;-69
2021/10/01 03:11:31;;;;;;;7.25;5.60;;;7.30;99.90;;;;;;2078973;28;20087;-68
2021/10/01 03:12:34;;;;;;;7.70;5.85;;;7.30;99.90;;;;;;2079999;28;20072;-69
2021/10/01 03:13:36;;;;;;;7.90;5.82;;;7.20;99.90;;;;;;2079885;28;20037;-69
2021/10/01 03:14:39;;;;;;;7.43;5.90;;;7.20;99.90;;;;;;2079851;28;20132;-71
2021/10/01 03:15:41;;;;;;;9.90;5.93;;;7.20;99.90;;;;;;2079863;28;20033;-70
2021/10/01 03:16:44;;;;;;;9.02;5.80;;;7.20;99.90;;;;;;2079867;28;20033;-68
2021/10/01 03:17:45;;;;;;;7.05;5.25;;;7.20;99.90;;;;;;2079867;28;20029;-68
2021/10/01 03:18:48;;;;;;;9.77;6.10;;;7.20;99.90;;;;;;2079880;28;20466;-71
2021/10/01 03:19:49;;;;;;;9.38;5.80;;;7.20;99.90;;;;;;2079732;28;20030;-69
2021/10/01 03:20:50;;;;;;;7.88;5.50;;;7.20;99.90;;;;;;2079847;28;20021;-69
2021/10/01 03:21:53;;;;;;;7.47;5.85;;;7.20;99.90;;;;;;2079781;28;20051;-68
2021/10/01 03:22:54;;;;;;;7.38;5.40;;;7.20;99.90;;;;;;2079748;28;20108;-69
2021/10/01 03:23:56;;;;;;;8.05;5.60;;;7.20;99.90;;;;;;2079824;28;20025;-69
2021/10/01 03:25:01;;;;;;;7.38;5.68;;;7.20;99.90;;;;;;2079763;28;20029;-68
2021/10/01 03:26:02;;;;;;;9.63;5.85;;;7.20;99.90;;;;;;2071784;28;20080;-68
2021/10/01 03:27:03;;;;;;;7.93;6.07;;;7.30;99.90;;;;;;2079715;28;20095;-69
2021/10/01 03:28:06;;;;;;;9.98;6.20;;;7.20;99.90;;;;;;2079890;28;20037;-69
2021/10/01 03:29:09;;;;;;;8.20;5.80;;;7.30;99.90;;;;;;2079854;28;20030;-68
2021/10/01 03:30:11;;;;;;;9.13;6.13;;;7.30;99.90;;;;;;2079899;28;20033;-68
2021/10/01 03:31:13;;;;;;;9.68;6.18;;;7.30;99.90;;;;;;2079126;28;20120;-69
2021/10/01 03:32:18;;;;;;;8.07;6.00;;;7.30;99.90;;;;;;2079742;28;20397;-68
2021/10/01 03:33:24;;;;;;;8.23;5.47;;;7.30;99.90;;;;;;2079857;28;20037;-69
2021/10/01 03:34:25;;;;;;;7.88;5.78;;;7.30;99.90;;;;;;2072009;28;20042;-69
2021/10/01 03:35:34;;;;;;;7.15;5.88;;;7.30;99.90;;;;;;2072717;28;20049;-69
2021/10/01 03:36:35;;;;;;;7.63;5.85;;;7.20;99.90;;;;;;2079754;28;20122;-70
2021/10/01 03:37:37;;;;;;;9.02;5.90;;;7.20;99.90;;;;;;2079709;28;20026;-70
2021/10/01 03:38:38;;;;;;;8.98;6.13;;;7.20;99.90;;;;;;2079708;28;20124;-68
2021/10/01 03:39:40;;;;;;;7.32;5.32;;;7.20;99.90;;;;;;2079710;28;20017;-69
2021/10/01 03:40:43;;;;;;;8.32;6.03;;;7.20;99.90;;;;;;2079865;28;20025;-68
2021/10/01 03:41:44;;;;;;;9.82;6.40;;;7.20;99.90;;;;;;2079119;28;20091;-68
2021/10/01 03:42:44;;;;;;;8.93;6.10;;;7.20;99.90;;;;;;2079850;28;20592;-67
2021/10/01 03:43:51;;;;;;;8.98;6.00;;;7.20;99.90;;;;;;2079798;28;20104;-69
2021/10/01 03:44:52;;;;;;;8.57;6.10;;;7.20;99.90;;;;;;2079758;28;20494;-69
2021/10/01 03:45:57;;;;;;;8.38;6.00;;;7.10;99.90;;;;;;2071713;28;20026;-69
2021/10/01 03:46:58;;;;;;;8.15;6.10;;;7.10;99.90;;;;;;2079746;28;20053;-69
2021/10/01 03:47:58;;;;;;;7.75;6.10;;;7.10;99.90;;;;;;2071443;28;20034;-69
2021/10/01 03:49:07;;;;;;;8.00;5.63;;;7.10;99.90;;;;;;2064211;28;20030;-69
2021/10/01 03:50:08;;;;;;;8.23;5.80;;;7.10;99.90;;;;;;2064393;28;20068;-67
2021/10/01 03:51:10;;;;;;;7.55;5.75;;;7.10;99.90;;;;;;2071181;28;20130;-69
2021/10/01 03:52:13;;;;;;;9.27;5.78;;;7.10;99.90;;;;;;2079640;28;20053;-69
2021/10/01 03:53:15;;;;;;;8.07;5.70;;;7.10;99.90;;;;;;2087437;28;20033;-69
2021/10/01 03:54:18;;;;;;;8.30;5.97;;;7.10;99.90;;;;;;2079542;28;20060;-71
2021/10/01 03:55:21;;;;;;;8.00;6.22;;;7.10;99.90;;;;;;2079643;28;20118;-69
2021/10/01 03:56:23;;;;;;;8.35;6.00;;;7.10;99.90;;;;;;2079643;28;20083;-68
2021/10/01 03:57:24;;;;;;;6.95;5.90;;;7.10;99.90;;;;;;2079659;28;20490;-70
2021/10/01 03:58:25;;;;;;;7.57;5.68;;;7.10;99.90;;;;;;2079578;28;20111;-68
2021/10/01 03:59:31;;;;;;;8.07;6.10;;;7.00;99.90;;;;;;2079685;28;20072;-70
2021/10/01 04:00:34;;;;;;;8.32;6.25;;;7.10;99.90;;;;;;2079495;28;20034;-68
2021/10/01 04:01:35;;;;;;;7.53;6.00;;;7.00;99.90;;;;;;2078872;28;20036;-68
2021/10/01 04:02:36;;;;;;;8.90;6.05;;;7.00;99.90;;;;;;2079468;28;20017;-71
2021/10/01 04:03:38;;;;;;;7.85;5.88;;;7.00;99.90;;;;;;2079564;28;20036;-70
2021/10/01 04:04:39;;;;;;;8.02;5.68;;;7.00;99.90;;;;;;2079773;28;20490;-70
2021/10/01 04:05:41;;;;;;;10.63;6.18;;;7.00;99.90;;;;;;2079702;28;20026;-72
2021/10/01 04:06:42;;;;;;;9.63;6.45;;;7.00;99.90;;;;;;2079867;28;20022;-71
2021/10/01 04:07:43;;;;;;;10.80;6.30;;;7.00;99.90;;;;;;2079521;28;20075;-70
2021/10/01 04:08:46;;;;;;;9.27;6.40;;;7.00;99.90;;;;;;2079590;28;20021;-71
2021/10/01 04:09:48;;;;;;;9.77;6.80;;;7.00;99.90;;;;;;2079455;28;20116;-69
2021/10/01 04:10:49;;;;;;;7.93;6.28;;;7.00;99.90;;;;;;2079643;28;20402;-69
2021/10/01 04:11:53;;;;;;;8.88;6.30;;;7.00;99.90;;;;;;2079268;28;20083;-71
2021/10/01 04:12:53;;;;;;;9.23;6.50;;;6.90;99.90;;;;;;2073284;28;20026;-68
2021/10/01 04:13:59;;;;;;;8.55;6.35;;;7.00;99.90;;;;;;2081982;28;20044;-68
2021/10/01 04:14:59;;;;;;;10.40;6.60;;;7.00;99.90;;;;;;2081259;28;20526;-68
2021/10/01 04:16:01;;;;;;;8.82;6.60;;;7.00;99.90;;;;;;2081373;28;20025;-68
2021/10/01 04:17:03;;;;;;;11.10;7.10;;;6.90;99.90;;;;;;2081255;28;20031;-70
2021/10/01 04:18:04;;;;;;;10.13;7.10;;;6.90;99.90;;;;;;2081187;28;20041;-69
2021/10/01 04:19:05;;;;;;;9.55;6.55;;;6.90;99.90;;;;;;2081241;28;20409;-68
2021/10/01 04:20:06;;;;;;;8.27;6.55;;;6.90;99.90;;;;;;2081353;28;20521;-68
2021/10/01 04:21:07;;;;;;;9.57;6.50;;;6.90;99.90;;;;;;2081017;28;20033;-68
2021/10/01 04:22:08;;;;;;;8.63;6.43;;;6.90;99.90;;;;;;2081207;28;20017;-68
2021/10/01 04:23:28;;;;;;;10.85;6.82;;;6.90;99.90;;;;;;2081607;28;20589;-69
2021/10/01 04:24:41;;;;;;;8.77;6.60;;;6.90;99.90;;;;;;2081982;28;20029;-69
2021/10/01 04:25:41;;;;;;;10.23;6.85;;;6.90;99.90;;;;;;2081206;28;20024;-68
2021/10/01 04:26:42;;;;;;;8.38;6.53;;;6.90;99.90;;;;;;2081284;28;20024;-68
2021/10/01 04:27:43;;;;;;;8.68;6.68;;;6.90;99.90;;;;;;2081176;28;20025;-69
2021/10/01 04:28:45;;;;;;;10.15;6.75;;;6.90;99.90;;;;;;2073107;28;20078;-68
2021/10/01 04:29:45;;;;;;;8.75;6.35;;;6.90;99.90;;;;;;2081274;28;20026;-68
2021/10/01 04:30:49;;;;;;;8.52;6.28;;;6.90;99.90;;;;;;2072984;28;20113;-70
2021/10/01 04:31:51;;;;;;;9.75;6.72;;;6.80;99.90;;;;;;2072750;28;20068;-69
2021/10/01 04:33:10;;;;;;;9.48;7.07;;;6.80;99.90;;;;;;2072988;28;20095;-69
2021/10/01 04:34:11;;;;;;;9.27;6.45;;;6.80;99.90;;;;;;2081572;28;20052;-69
2021/10/01 04:35:12;;;;;;;8.20;6.30;;;6.80;99.90;;;;;;2081420;28;20566;-68
2021/10/01 04:36:13;;;;;;;10.20;6.40;;;6.80;99.90;;;;;;2081234;28;20116;-69
2021/10/01 04:37:13;;;;;;;8.75;6.28;;;6.80;99.90;;;;;;2081468;28;20021;-70
2021/10/01 04:38:15;;;;;;;11.05;7.15;;;6.80;99.90;;;;;;2081325;28;20022;-72
2021/10/01 04:39:16;;;;;;;9.65;6.60;;;6.80;99.90;;;;;;2081229;28;20033;-71
2021/10/01 04:40:17;;;;;;;11.52;6.95;;;6.80;99.90;;;;;;2081039;28;20027;-70
2021/10/01 04:41:18;;;;;;;10.10;6.72;;;6.80;99.90;;;;;;2080615;28;20423;-71
2021/10/01 04:42:19;;;;;;;10.00;6.60;;;6.80;99.90;;;;;;2081165;28;20041;-71
2021/10/01 04:43:20;;;;;;;9.27;6.63;;;6.80;99.90;;;;;;2081181;28;20484;-71
2021/10/01 04:44:39;;;;;;;11.35;7.20;;;6.80;99.90;;;;;;2081480;28;20410;-72
2021/10/01 04:45:40;;;;;;;11.90;9.35;;;6.80;99.90;;;;;;2081111;28;20025;-70
2021/10/01 04:46:41;;;;;;;15.13;8.82;;;6.80;99.90;;;;;;2081131;28;20108;-73
2021/10/01 04:47:41;;;;;;;12.98;9.18;;;6.80;99.90;;;;;;2081110;28;20024;-71
2021/10/01 04:48:42;;;;;;;12.65;9.45;;;6.80;99.90;;;;;;2081212;28;20060;-71
2021/10/01 04:49:45;;;;;;;11.38;8.48;;;6.80;99.90;;;;;;2081027;28;20021;-71
2021/10/01 04:50:45;;;;;;;11.82;8.13;;;6.80;99.90;;;;;;2080956;28;20501;-72
2021/10/01 04:51:46;;;;;;;11.85;7.55;;;6.80;99.90;;;;;;2072049;28;20037;-69
2021/10/01 04:52:47;;;;;;;9.55;7.30;;;6.80;99.90;;;;;;2072892;28;20017;-70
2021/10/01 04:53:51;;;;;;;12.70;7.63;;;6.80;99.90;;;;;;2073198;28;20037;-70
2021/10/01 04:54:53;;;;;;;10.18;7.05;;;6.80;99.90;;;;;;2073264;28;20064;-69
2021/10/01 04:55:54;;;;;;;10.85;7.50;;;6.80;99.90;;;;;;2072791;28;20018;-69
2021/10/01 04:56:55;;;;;;;9.82;7.03;;;6.80;99.90;;;;;;2072832;28;20026;-73
2021/10/01 04:58:00;;;;;;;10.38;6.90;;;6.80;99.90;;;;;;2081321;28;20029;-68
2021/10/01 04:59:19;;;;;;;10.40;6.93;;;6.80;99.90;;;;;;2086976;28;20406;-69
2021/10/01 05:00:45;;;;;;;12.27;8.48;;;6.80;99.90;;;;;;2080706;28;20036;-69
2021/10/01 05:02:11;;;;;;;11.50;8.38;;;6.80;99.90;;;;;;2081342;28;20575;-70
2021/10/01 05:03:36;;;;;;;12.30;8.25;;;6.80;99.90;;;;;;2081169;28;20033;-69
2021/10/01 05:04:57;;;;;;;11.85;8.10;;;6.80;99.90;;;;;;2081134;28;20037;-68
2021/10/01 05:06:21;;;;;;;10.10;7.78;;;6.80;99.90;;;;;;2081381;28;20101;-68
2021/10/01 05:07:40;;;;;;;10.07;7.50;;;6.80;99.90;;;;;;2081558;28;20121;-69
2021/10/01 05:08:59;;;;;;;10.10;7.38;;;6.80;99.90;;;;;;2081708;28;20094;-69
2021/10/01 05:10:37;;;;;;;10.60;7.80;;;6.80;99.90;;;;;;2081493;28;20119;-68
2021/10/01 05:11:56;;;;;;;12.20;8.02;;;6.80;99.90;;;;;;2080690;28;20116;-69
2021/10/01 05:13:16;;;;;;;12.30;9.20;;;6.80;99.90;;;;;;2081113;28;20029;-71
2021/10/01 05:14:35;;;;;;;13.05;9.40;;;6.80;99.90;;;;;;2081570;28;20083;-71
2021/10/01 05:15:58;;;;;;;15.93;10.25;;;6.80;99.90;;;;;;2081559;28;20109;-70
2021/10/01 05:17:17;;;;;;;14.82;10.95;;;6.80;99.90;;;;;;2081645;28;20049;-72
2021/10/01 05:18:47;;;;;;;17.52;11.20;;;6.80;99.90;;;;;;2072358;28;20558;-72
2021/10/01 05:20:09;;;;;;;17.73;11.50;;;6.90;99.90;;;;;;2074155;28;20042;-72
2021/10/01 05:21:14;;;;;;;15.55;10.73;;;6.90;99.90;;;;;;2080516;28;20608;-73
2021/10/01 05:22:29;;;;;;;13.88;10.13;;;6.90;99.90;;;;;;2080983;28;20501;-71
2021/10/01 05:23:30;;;;;;;15.20;10.98;;;6.90;99.90;;;;;;2080368;28;20037;-72
2021/10/01 05:24:31;;;;;;;16.83;11.80;;;6.90;99.90;;;;;;2080668;28;20080;-73
2021/10/01 05:25:32;;;;;;;18.73;11.98;;;6.90;99.90;;;;;;2080717;28;20033;-72
2021/10/01 05:26:32;;;;;;;20.48;14.70;;;7.00;99.90;;;;;;2080683;28;20037;-72
2021/10/01 05:27:33;;;;;;;20.85;15.15;;;7.00;99.90;;;;;;2080643;28;20120;-72
2021/10/01 05:28:34;;;;;;;22.20;14.90;;;7.00;99.90;;;;;;2080792;28;20036;-72
2021/10/01 05:29:34;;;;;;;21.83;15.35;;;7.00;99.90;;;;;;2072660;28;20237;-72
2021/10/01 05:30:35;;;;;;;22.65;14.77;;;7.00;99.90;;;;;;2080743;28;20109;-72
2021/10/01 05:31:36;;;;;;;19.40;13.57;;;7.00;99.90;;;;;;2088073;28;20437;-73
2021/10/01 05:32:37;;;;;;;18.83;13.07;;;7.00;99.90;;;;;;2072541;28;20100;-70
2021/10/01 05:33:37;;;;;;;17.98;12.65;;;7.10;99.90;;;;;;2072682;28;20080;-72
2021/10/01 05:34:38;;;;;;;16.52;12.02;;;7.10;99.90;;;;;;2088884;28;20029;-73
2021/10/01 05:35:40;;;;;;;13.40;10.27;;;7.10;99.90;;;;;;2080662;28;20041;-71
2021/10/01 05:36:41;;;;;;;12.80;9.65;;;7.10;99.90;;;;;;2080739;28;20123;-72
2021/10/01 05:37:42;;;;;;;12.45;9.30;;;7.10;99.90;;;;;;2080594;28;20017;-72
2021/10/01 05:38:43;;;;;;;11.20;8.98;;;7.20;99.90;;;;;;2080649;28;20092;-72
2021/10/01 05:39:46;;;;;;;13.18;9.10;;;7.20;99.90;;;;;;2080665;28;20029;-76
2021/10/01 05:40:46;;;;;;;10.48;8.07;;;7.20;99.90;;;;;;2080615;28;20079;-73
2021/10/01 05:41:47;;;;;;;10.60;8.07;;;7.20;99.90;;;;;;2079744;28;20075;-71
2021/10/01 05:42:48;;;;;;;11.43;7.82;;;7.20;99.90;;;;;;2080979;28;20017;-72